sensor_id;sensor_type;location;lat;lon;timestamp;P1;durP1;ratioP1;P2;durP2;ratioP2
20669;SDS011;10494;50.868;4.180;2023-02-28T00:00:48;9.10;;;4.17;;
20669;SDS011;10494;50.868;4.180;2023-02-28T00:03:14;11.17;;;5.20;;
20669;SDS011;10494;50.868;4.180;2023-02-28T00:05:40;11.17;;;5.33;;
20669;SDS011;10494;50.868;4.180;2023-02-28T00:08:06;10.37;;;5.10;;
20669;SDS011;10494;50.868;4.180;2023-02-28T00:10:32;10.80;;;5.23;;
20669;SDS011;10494;50.868;4.180;2023-02-28T00:13:02;16.47;;;4.67;;
20669;SDS011;10494;50.868;4.180;2023-02-28T00:15:30;10.07;;;4.43;;
20669;SDS011;10494;50.868;4.180;2023-02-28T00:17:56;12.20;;;5.13;;
20669;SDS011;10494;50.868;4.180;2023-02-28T00:20:22;8.07;;;5.03;;
20669;SDS011;10494;50.868;4.180;2023-02-28T00:22:49;9.40;;;5.17;;
20669;SDS011;10494;50.868;4.180;2023-02-28T00:25:16;9.60;;;5.47;;
20669;SDS011;10494;50.868;4.180;2023-02-28T00:27:44;16.90;;;4.67;;
20669;SDS011;10494;50.868;4.180;2023-02-28T00:30:10;7.60;;;4.93;;
20669;SDS011;10494;50.868;4.180;2023-02-28T00:32:38;14.73;;;5.30;;
20669;SDS011;10494;50.868;4.180;2023-02-28T00:35:04;9.57;;;4.70;;
20669;SDS011;10494;50.868;4.180;2023-02-28T00:37:31;12.17;;;5.07;;
20669;SDS011;10494;50.868;4.180;2023-02-28T00:39:56;13.37;;;5.00;;
20669;SDS011;10494;50.868;4.180;2023-02-28T00:42:22;9.57;;;5.70;;
20669;SDS011;10494;50.868;4.180;2023-02-28T00:44:48;9.57;;;5.40;;
20669;SDS011;10494;50.868;4.180;2023-02-28T00:47:14;11.00;;;5.07;;
20669;SDS011;10494;50.868;4.180;2023-02-28T00:49:40;9.93;;;5.50;;
20669;SDS011;10494;50.868;4.180;2023-02-28T00:52:06;7.13;;;4.93;;
20669;SDS011;10494;50.868;4.180;2023-02-28T00:54:31;10.37;;;5.43;;
20669;SDS011;10494;50.868;4.180;2023-02-28T00:56:57;10.40;;;5.13;;
20669;SDS011;10494;50.868;4.180;2023-02-28T00:59:24;10.87;;;5.53;;
20669;SDS011;10494;50.868;4.180;2023-02-28T01:01:50;8.73;;;5.50;;
20669;SDS011;10494;50.868;4.180;2023-02-28T01:04:15;11.80;;;5.47;;
20669;SDS011;10494;50.868;4.180;2023-02-28T01:06:41;11.00;;;5.60;;
20669;SDS011;10494;50.868;4.180;2023-02-28T01:09:08;10.13;;;5.80;;
20669;SDS011;10494;50.868;4.180;2023-02-28T01:11:34;9.57;;;5.53;;
20669;SDS011;10494;50.868;4.180;2023-02-28T01:14:00;9.90;;;5.77;;
20669;SDS011;10494;50.868;4.180;2023-02-28T01:16:26;11.23;;;5.53;;
20669;SDS011;10494;50.868;4.180;2023-02-28T01:18:52;9.80;;;5.73;;
20669;SDS011;10494;50.868;4.180;2023-02-28T01:21:19;14.20;;;6.40;;
20669;SDS011;10494;50.868;4.180;2023-02-28T01:23:46;8.23;;;5.90;;
20669;SDS011;10494;50.868;4.180;2023-02-28T01:26:16;8.57;;;5.77;;
20669;SDS011;10494;50.868;4.180;2023-02-28T01:28:43;9.67;;;5.97;;
20669;SDS011;10494;50.868;4.180;2023-02-28T01:31:09;13.17;;;5.77;;
20669;SDS011;10494;50.868;4.180;2023-02-28T01:33:36;8.50;;;5.63;;
20669;SDS011;10494;50.868;4.180;2023-02-28T01:36:03;14.83;;;6.37;;
20669;SDS011;10494;50.868;4.180;2023-02-28T01:38:31;7.80;;;5.80;;
20669;SDS011;10494;50.868;4.180;2023-02-28T01:40:58;9.73;;;6.27;;
20669;SDS011;10494;50.868;4.180;2023-02-28T01:43:32;12.83;;;5.73;;
20669;SDS011;10494;50.868;4.180;2023-02-28T01:46:22;10.87;;;6.23;;
20669;SDS011;10494;50.868;4.180;2023-02-28T01:48:53;16.13;;;6.60;;
20669;SDS011;10494;50.868;4.180;2023-02-28T01:51:28;12.93;;;6.90;;
20669;SDS011;10494;50.868;4.180;2023-02-28T01:54:03;12.13;;;7.10;;
20669;SDS011;10494;50.868;4.180;2023-02-28T01:56:38;11.43;;;6.33;;
20669;SDS011;10494;50.868;4.180;2023-02-28T01:59:29;12.03;;;6.53;;
20669;SDS011;10494;50.868;4.180;2023-02-28T02:02:01;8.07;;;5.73;;
20669;SDS011;10494;50.868;4.180;2023-02-28T02:04:38;11.10;;;6.40;;
20669;SDS011;10494;50.868;4.180;2023-02-28T02:07:11;9.60;;;6.37;;
20669;SDS011;10494;50.868;4.180;2023-02-28T02:09:38;9.53;;;6.60;;
20669;SDS011;10494;50.868;4.180;2023-02-28T02:12:07;9.97;;;6.70;;
20669;SDS011;10494;50.868;4.180;2023-02-28T02:15:01;9.67;;;6.67;;
20669;SDS011;10494;50.868;4.180;2023-02-28T02:17:39;10.17;;;6.53;;
20669;SDS011;10494;50.868;4.180;2023-02-28T02:20:16;11.03;;;6.83;;
20669;SDS011;10494;50.868;4.180;2023-02-28T02:34:17;11.30;;;6.93;;
20669;SDS011;10494;50.868;4.180;2023-02-28T02:36:54;13.07;;;7.13;;
20669;SDS011;10494;50.868;4.180;2023-02-28T02:39:40;12.83;;;7.13;;
20669;SDS011;10494;50.868;4.180;2023-02-28T02:48:09;11.07;;;7.13;;
20669;SDS011;10494;50.868;4.180;2023-02-28T02:50:59;11.40;;;7.13;;
20669;SDS011;10494;50.868;4.180;2023-02-28T02:53:27;16.03;;;7.20;;
20669;SDS011;10494;50.868;4.180;2023-02-28T02:55:57;11.63;;;7.77;;
20669;SDS011;10494;50.868;4.180;2023-02-28T02:58:26;13.07;;;6.97;;
20669;SDS011;10494;50.868;4.180;2023-02-28T03:00:57;18.73;;;8.03;;
20669;SDS011;10494;50.868;4.180;2023-02-28T03:03:26;13.67;;;7.20;;
20669;SDS011;10494;50.868;4.180;2023-02-28T03:05:56;21.13;;;7.57;;
20669;SDS011;10494;50.868;4.180;2023-02-28T03:08:23;13.60;;;7.73;;
20669;SDS011;10494;50.868;4.180;2023-02-28T03:10:49;10.33;;;6.57;;
20669;SDS011;10494;50.868;4.180;2023-02-28T03:16:15;20.70;;;10.00;;
20669;SDS011;10494;50.868;4.180;2023-02-28T03:24:30;31.73;;;11.97;;
20669;SDS011;10494;50.868;4.180;2023-02-28T03:27:07;20.90;;;10.17;;
20669;SDS011;10494;50.868;4.180;2023-02-28T03:29:42;39.17;;;14.17;;
20669;SDS011;10494;50.868;4.180;2023-02-28T03:32:27;39.37;;;16.20;;
20669;SDS011;10494;50.868;4.180;2023-02-28T03:35:16;44.80;;;18.80;;
20669;SDS011;10494;50.868;4.180;2023-02-28T03:37:47;42.07;;;18.40;;
20669;SDS011;10494;50.868;4.180;2023-02-28T03:40:19;38.73;;;16.30;;
20669;SDS011;10494;50.868;4.180;2023-02-28T03:42:47;31.27;;;13.13;;
20669;SDS011;10494;50.868;4.180;2023-02-28T03:45:21;30.17;;;11.43;;
20669;SDS011;10494;50.868;4.180;2023-02-28T03:47:54;25.57;;;12.23;;
20669;SDS011;10494;50.868;4.180;2023-02-28T03:55:56;23.10;;;11.93;;
20669;SDS011;10494;50.868;4.180;2023-02-28T03:58:34;19.83;;;9.77;;
20669;SDS011;10494;50.868;4.180;2023-02-28T04:03:38;41.87;;;17.20;;
20669;SDS011;10494;50.868;4.180;2023-02-28T04:06:04;38.77;;;15.30;;
20669;SDS011;10494;50.868;4.180;2023-02-28T04:08:33;29.50;;;13.80;;
20669;SDS011;10494;50.868;4.180;2023-02-28T04:11:06;38.43;;;15.97;;
20669;SDS011;10494;50.868;4.180;2023-02-28T04:13:42;49.73;;;19.93;;
20669;SDS011;10494;50.868;4.180;2023-02-28T04:16:08;45.57;;;19.20;;
20669;SDS011;10494;50.868;4.180;2023-02-28T04:18:37;38.23;;;16.10;;
20669;SDS011;10494;50.868;4.180;2023-02-28T04:21:03;33.67;;;14.50;;
20669;SDS011;10494;50.868;4.180;2023-02-28T04:23:30;26.10;;;11.50;;
20669;SDS011;10494;50.868;4.180;2023-02-28T04:25:55;22.97;;;10.33;;
20669;SDS011;10494;50.868;4.180;2023-02-28T04:28:21;19.37;;;9.07;;
20669;SDS011;10494;50.868;4.180;2023-02-28T04:30:47;24.00;;;9.30;;
20669;SDS011;10494;50.868;4.180;2023-02-28T04:33:12;19.37;;;9.23;;
20669;SDS011;10494;50.868;4.180;2023-02-28T04:35:38;17.83;;;8.67;;
20669;SDS011;10494;50.868;4.180;2023-02-28T04:38:03;13.93;;;8.40;;
20669;SDS011;10494;50.868;4.180;2023-02-28T04:40:29;15.80;;;8.10;;
20669;SDS011;10494;50.868;4.180;2023-02-28T04:42:55;16.47;;;9.53;;
20669;SDS011;10494;50.868;4.180;2023-02-28T04:45:20;14.73;;;9.33;;
20669;SDS011;10494;50.868;4.180;2023-02-28T04:47:46;15.67;;;9.10;;
20669;SDS011;10494;50.868;4.180;2023-02-28T04:50:11;16.47;;;9.10;;
20669;SDS011;10494;50.868;4.180;2023-02-28T04:52:37;25.13;;;9.50;;
20669;SDS011;10494;50.868;4.180;2023-02-28T04:55:03;18.10;;;9.23;;
20669;SDS011;10494;50.868;4.180;2023-02-28T04:57:28;16.53;;;8.87;;
20669;SDS011;10494;50.868;4.180;2023-02-28T04:59:55;12.80;;;8.83;;
20669;SDS011;10494;50.868;4.180;2023-02-28T05:02:20;20.97;;;9.40;;
20669;SDS011;10494;50.868;4.180;2023-02-28T05:04:46;14.70;;;8.87;;
20669;SDS011;10494;50.868;4.180;2023-02-28T05:07:11;16.57;;;8.93;;
20669;SDS011;10494;50.868;4.180;2023-02-28T05:09:37;13.97;;;8.73;;
20669;SDS011;10494;50.868;4.180;2023-02-28T05:12:02;15.63;;;8.80;;
20669;SDS011;10494;50.868;4.180;2023-02-28T05:14:28;16.90;;;8.90;;
20669;SDS011;10494;50.868;4.180;2023-02-28T05:16:54;17.73;;;8.63;;
20669;SDS011;10494;50.868;4.180;2023-02-28T05:19:19;16.50;;;8.80;;
20669;SDS011;10494;50.868;4.180;2023-02-28T05:21:53;15.83;;;8.87;;
20669;SDS011;10494;50.868;4.180;2023-02-28T05:24:20;21.43;;;9.70;;
20669;SDS011;10494;50.868;4.180;2023-02-28T05:26:48;18.63;;;8.90;;
20669;SDS011;10494;50.868;4.180;2023-02-28T05:29:16;18.23;;;8.97;;
20669;SDS011;10494;50.868;4.180;2023-02-28T05:31:42;18.40;;;8.47;;
20669;SDS011;10494;50.868;4.180;2023-02-28T05:34:07;13.90;;;9.17;;
20669;SDS011;10494;50.868;4.180;2023-02-28T05:36:36;14.83;;;8.10;;
20669;SDS011;10494;50.868;4.180;2023-02-28T05:39:02;13.63;;;7.97;;
20669;SDS011;10494;50.868;4.180;2023-02-28T05:41:28;13.90;;;8.00;;
20669;SDS011;10494;50.868;4.180;2023-02-28T05:43:54;16.03;;;8.50;;
20669;SDS011;10494;50.868;4.180;2023-02-28T05:46:19;10.53;;;7.63;;
20669;SDS011;10494;50.868;4.180;2023-02-28T05:48:46;13.70;;;7.83;;
20669;SDS011;10494;50.868;4.180;2023-02-28T05:51:12;16.80;;;8.30;;
20669;SDS011;10494;50.868;4.180;2023-02-28T05:53:38;16.73;;;7.93;;
20669;SDS011;10494;50.868;4.180;2023-02-28T05:56:04;14.87;;;8.20;;
20669;SDS011;10494;50.868;4.180;2023-02-28T05:58:30;15.40;;;8.53;;
20669;SDS011;10494;50.868;4.180;2023-02-28T06:00:59;13.67;;;8.33;;
20669;SDS011;10494;50.868;4.180;2023-02-28T06:03:26;16.10;;;8.73;;
20669;SDS011;10494;50.868;4.180;2023-02-28T06:05:52;14.67;;;7.67;;
20669;SDS011;10494;50.868;4.180;2023-02-28T06:08:18;20.80;;;8.13;;
20669;SDS011;10494;50.868;4.180;2023-02-28T06:10:44;18.53;;;8.30;;
20669;SDS011;10494;50.868;4.180;2023-02-28T06:13:10;18.67;;;9.20;;
20669;SDS011;10494;50.868;4.180;2023-02-28T06:15:37;19.03;;;7.73;;
20669;SDS011;10494;50.868;4.180;2023-02-28T06:18:03;17.33;;;8.77;;
20669;SDS011;10494;50.868;4.180;2023-02-28T06:20:29;24.00;;;8.90;;
20669;SDS011;10494;50.868;4.180;2023-02-28T06:22:58;16.23;;;8.20;;
20669;SDS011;10494;50.868;4.180;2023-02-28T06:25:24;21.07;;;9.03;;
20669;SDS011;10494;50.868;4.180;2023-02-28T06:27:51;19.47;;;10.37;;
20669;SDS011;10494;50.868;4.180;2023-02-28T06:30:17;14.93;;;8.93;;
20669;SDS011;10494;50.868;4.180;2023-02-28T06:32:42;19.63;;;8.70;;
20669;SDS011;10494;50.868;4.180;2023-02-28T06:35:08;14.10;;;8.10;;
20669;SDS011;10494;50.868;4.180;2023-02-28T06:37:35;12.00;;;7.70;;
20669;SDS011;10494;50.868;4.180;2023-02-28T06:40:00;13.90;;;8.00;;
20669;SDS011;10494;50.868;4.180;2023-02-28T06:42:26;15.77;;;8.37;;
20669;SDS011;10494;50.868;4.180;2023-02-28T06:44:54;14.63;;;8.33;;
20669;SDS011;10494;50.868;4.180;2023-02-28T06:47:20;14.83;;;8.40;;
20669;SDS011;10494;50.868;4.180;2023-02-28T06:49:46;13.67;;;7.60;;
20669;SDS011;10494;50.868;4.180;2023-02-28T06:52:12;13.93;;;7.90;;
20669;SDS011;10494;50.868;4.180;2023-02-28T06:54:38;15.47;;;8.40;;
20669;SDS011;10494;50.868;4.180;2023-02-28T06:57:04;15.80;;;8.33;;
20669;SDS011;10494;50.868;4.180;2023-02-28T06:59:30;14.33;;;8.23;;
20669;SDS011;10494;50.868;4.180;2023-02-28T07:01:55;20.30;;;8.13;;
20669;SDS011;10494;50.868;4.180;2023-02-28T07:04:21;13.13;;;7.53;;
20669;SDS011;10494;50.868;4.180;2023-02-28T07:06:47;16.03;;;7.97;;
20669;SDS011;10494;50.868;4.180;2023-02-28T07:09:13;13.23;;;7.40;;
20669;SDS011;10494;50.868;4.180;2023-02-28T07:11:39;20.60;;;7.57;;
20669;SDS011;10494;50.868;4.180;2023-02-28T07:14:06;11.60;;;7.37;;
20669;SDS011;10494;50.868;4.180;2023-02-28T07:16:32;14.57;;;7.77;;
20669;SDS011;10494;50.868;4.180;2023-02-28T07:18:58;30.90;;;15.63;;
20669;SDS011;10494;50.868;4.180;2023-02-28T07:21:24;17.23;;;9.37;;
20669;SDS011;10494;50.868;4.180;2023-02-28T07:23:49;12.17;;;7.13;;
20669;SDS011;10494;50.868;4.180;2023-02-28T07:26:16;18.20;;;8.20;;
20669;SDS011;10494;50.868;4.180;2023-02-28T07:28:44;15.50;;;9.67;;
20669;SDS011;10494;50.868;4.180;2023-02-28T07:31:11;12.67;;;7.37;;
20669;SDS011;10494;50.868;4.180;2023-02-28T07:33:39;15.53;;;8.60;;
20669;SDS011;10494;50.868;4.180;2023-02-28T07:36:05;14.30;;;7.80;;
20669;SDS011;10494;50.868;4.180;2023-02-28T07:38:36;16.37;;;7.70;;
20669;SDS011;10494;50.868;4.180;2023-02-28T07:41:02;18.60;;;7.43;;
20669;SDS011;10494;50.868;4.180;2023-02-28T07:43:33;22.40;;;9.97;;
20669;SDS011;10494;50.868;4.180;2023-02-28T07:46:06;17.70;;;7.00;;
20669;SDS011;10494;50.868;4.180;2023-02-28T07:48:33;15.77;;;7.70;;
20669;SDS011;10494;50.868;4.180;2023-02-28T07:50:59;14.23;;;8.20;;
20669;SDS011;10494;50.868;4.180;2023-02-28T07:53:25;16.03;;;7.03;;
20669;SDS011;10494;50.868;4.180;2023-02-28T07:55:55;9.63;;;6.13;;
20669;SDS011;10494;50.868;4.180;2023-02-28T07:58:22;10.50;;;6.80;;
20669;SDS011;10494;50.868;4.180;2023-02-28T08:00:49;10.47;;;5.83;;
20669;SDS011;10494;50.868;4.180;2023-02-28T08:03:15;11.80;;;7.07;;
20669;SDS011;10494;50.868;4.180;2023-02-28T08:05:45;18.57;;;9.33;;
20669;SDS011;10494;50.868;4.180;2023-02-28T08:08:11;44.63;;;20.23;;
20669;SDS011;10494;50.868;4.180;2023-02-28T08:10:36;25.00;;;12.43;;
20669;SDS011;10494;50.868;4.180;2023-02-28T08:13:02;19.37;;;6.77;;
20669;SDS011;10494;50.868;4.180;2023-02-28T08:15:28;12.73;;;6.10;;
20669;SDS011;10494;50.868;4.180;2023-02-28T08:17:54;18.27;;;6.83;;
20669;SDS011;10494;50.868;4.180;2023-02-28T08:20:21;10.43;;;5.53;;
20669;SDS011;10494;50.868;4.180;2023-02-28T08:22:47;9.37;;;4.67;;
20669;SDS011;10494;50.868;4.180;2023-02-28T08:25:13;32.40;;;14.43;;
20669;SDS011;10494;50.868;4.180;2023-02-28T08:27:38;11.07;;;5.50;;
20669;SDS011;10494;50.868;4.180;2023-02-28T08:30:04;13.00;;;4.60;;
20669;SDS011;10494;50.868;4.180;2023-02-28T08:32:31;8.67;;;4.20;;
20669;SDS011;10494;50.868;4.180;2023-02-28T08:34:58;10.07;;;5.47;;
20669;SDS011;10494;50.868;4.180;2023-02-28T08:37:24;20.80;;;4.40;;
20669;SDS011;10494;50.868;4.180;2023-02-28T08:39:50;9.07;;;5.17;;
20669;SDS011;10494;50.868;4.180;2023-02-28T08:42:17;9.30;;;4.07;;
20669;SDS011;10494;50.868;4.180;2023-02-28T08:44:42;8.37;;;4.37;;
20669;SDS011;10494;50.868;4.180;2023-02-28T08:47:08;7.60;;;3.77;;
20669;SDS011;10494;50.868;4.180;2023-02-28T08:49:33;8.87;;;3.70;;
20669;SDS011;10494;50.868;4.180;2023-02-28T08:51:59;9.07;;;4.67;;
20669;SDS011;10494;50.868;4.180;2023-02-28T08:54:25;10.57;;;3.80;;
20669;SDS011;10494;50.868;4.180;2023-02-28T08:56:50;6.43;;;3.13;;
20669;SDS011;10494;50.868;4.180;2023-02-28T08:59:16;8.20;;;3.67;;
20669;SDS011;10494;50.868;4.180;2023-02-28T09:01:42;9.30;;;3.20;;
20669;SDS011;10494;50.868;4.180;2023-02-28T09:04:08;27.50;;;3.63;;
20669;SDS011;10494;50.868;4.180;2023-02-28T09:06:36;15.27;;;3.23;;
20669;SDS011;10494;50.868;4.180;2023-02-28T09:09:02;18.37;;;3.70;;
20669;SDS011;10494;50.868;4.180;2023-02-28T09:11:31;7.63;;;4.07;;
20669;SDS011;10494;50.868;4.180;2023-02-28T09:13:57;9.03;;;3.50;;
20669;SDS011;10494;50.868;4.180;2023-02-28T09:16:25;11.03;;;4.30;;
20669;SDS011;10494;50.868;4.180;2023-02-28T09:18:50;3.77;;;2.10;;
20669;SDS011;10494;50.868;4.180;2023-02-28T09:21:17;7.50;;;3.07;;
20669;SDS011;10494;50.868;4.180;2023-02-28T09:23:45;48.90;;;5.73;;
20669;SDS011;10494;50.868;4.180;2023-02-28T09:26:16;10.27;;;2.87;;
20669;SDS011;10494;50.868;4.180;2023-02-28T09:28:44;4.43;;;2.20;;
20669;SDS011;10494;50.868;4.180;2023-02-28T09:31:12;6.07;;;2.50;;
20669;SDS011;10494;50.868;4.180;2023-02-28T09:33:41;4.63;;;2.17;;
20669;SDS011;10494;50.868;4.180;2023-02-28T09:36:07;4.15;;;2.03;;
20669;SDS011;10494;50.868;4.180;2023-02-28T09:38:33;9.05;;;2.45;;
20669;SDS011;10494;50.868;4.180;2023-02-28T09:41:00;3.45;;;2.08;;
20669;SDS011;10494;50.868;4.180;2023-02-28T09:43:29;7.10;;;2.40;;
20669;SDS011;10494;50.868;4.180;2023-02-28T09:46:18;3.42;;;2.05;;
20669;SDS011;10494;50.868;4.180;2023-02-28T09:48:47;6.35;;;2.20;;
20669;SDS011;10494;50.868;4.180;2023-02-28T09:54:05;5.40;;;2.30;;
20669;SDS011;10494;50.868;4.180;2023-02-28T09:56:38;3.95;;;2.45;;
20669;SDS011;10494;50.868;4.180;2023-02-28T10:01:45;8.75;;;4.15;;
20669;SDS011;10494;50.868;4.180;2023-02-28T10:04:34;4.15;;;2.58;;
20669;SDS011;10494;50.868;4.180;2023-02-28T10:07:18;5.32;;;2.47;;
20669;SDS011;10494;50.868;4.180;2023-02-28T10:10:07;3.85;;;2.60;;
20669;SDS011;10494;50.868;4.180;2023-02-28T10:13:05;4.13;;;2.22;;
20669;SDS011;10494;50.868;4.180;2023-02-28T10:15:41;7.00;;;1.88;;
20669;SDS011;10494;50.868;4.180;2023-02-28T10:18:11;3.08;;;2.05;;
20669;SDS011;10494;50.868;4.180;2023-02-28T10:20:44;5.80;;;2.10;;
20669;SDS011;10494;50.868;4.180;2023-02-28T10:25:58;4.05;;;2.22;;
20669;SDS011;10494;50.868;4.180;2023-02-28T10:28:26;8.40;;;2.07;;
20669;SDS011;10494;50.868;4.180;2023-02-28T10:30:54;17.03;;;2.43;;
20669;SDS011;10494;50.868;4.180;2023-02-28T10:33:25;7.93;;;2.30;;
20669;SDS011;10494;50.868;4.180;2023-02-28T10:35:59;10.97;;;3.13;;
20669;SDS011;10494;50.868;4.180;2023-02-28T10:38:32;6.10;;;1.70;;
20669;SDS011;10494;50.868;4.180;2023-02-28T10:41:04;4.97;;;1.77;;
20669;SDS011;10494;50.868;4.180;2023-02-28T10:43:32;4.97;;;2.50;;
20669;SDS011;10494;50.868;4.180;2023-02-28T10:45:59;5.83;;;2.40;;
20669;SDS011;10494;50.868;4.180;2023-02-28T10:48:39;5.40;;;2.10;;
20669;SDS011;10494;50.868;4.180;2023-02-28T10:51:14;5.53;;;2.10;;
20669;SDS011;10494;50.868;4.180;2023-02-28T10:58:51;3.80;;;2.43;;
20669;SDS011;10494;50.868;4.180;2023-02-28T11:06:47;3.50;;;2.40;;
20669;SDS011;10494;50.868;4.180;2023-02-28T11:09:28;3.40;;;2.10;;
20669;SDS011;10494;50.868;4.180;2023-02-28T11:12:00;4.67;;;2.20;;
20669;SDS011;10494;50.868;4.180;2023-02-28T11:14:28;5.43;;;2.20;;
20669;SDS011;10494;50.868;4.180;2023-02-28T11:16:58;2.63;;;1.77;;
20669;SDS011;10494;50.868;4.180;2023-02-28T11:19:38;2.87;;;2.23;;
20669;SDS011;10494;50.868;4.180;2023-02-28T11:22:09;2.27;;;1.60;;
20669;SDS011;10494;50.868;4.180;2023-02-28T11:24:45;3.43;;;1.80;;
20669;SDS011;10494;50.868;4.180;2023-02-28T11:27:25;3.10;;;1.97;;
20669;SDS011;10494;50.868;4.180;2023-02-28T11:29:54;5.80;;;2.23;;
20669;SDS011;10494;50.868;4.180;2023-02-28T11:32:21;3.73;;;2.00;;
20669;SDS011;10494;50.868;4.180;2023-02-28T11:37:36;5.97;;;2.27;;
20669;SDS011;10494;50.868;4.180;2023-02-28T11:40:12;8.73;;;2.23;;
20669;SDS011;10494;50.868;4.180;2023-02-28T11:48:16;4.00;;;2.13;;
20669;SDS011;10494;50.868;4.180;2023-02-28T11:50:50;3.20;;;2.07;;
20669;SDS011;10494;50.868;4.180;2023-02-28T11:56:36;5.87;;;2.43;;
20669;SDS011;10494;50.868;4.180;2023-02-28T12:05:00;2.97;;;2.20;;
20669;SDS011;10494;50.868;4.180;2023-02-28T12:10:44;3.03;;;2.00;;
20669;SDS011;10494;50.868;4.180;2023-02-28T12:13:26;5.57;;;2.50;;
20669;SDS011;10494;50.868;4.180;2023-02-28T12:19:01;4.23;;;2.40;;
20669;SDS011;10494;50.868;4.180;2023-02-28T12:27:05;3.57;;;2.03;;
20669;SDS011;10494;50.868;4.180;2023-02-28T12:29:42;4.53;;;2.33;;
20669;SDS011;10494;50.868;4.180;2023-02-28T12:32:20;4.60;;;2.20;;
20669;SDS011;10494;50.868;4.180;2023-02-28T12:35:02;4.00;;;2.20;;
20669;SDS011;10494;50.868;4.180;2023-02-28T12:37:37;3.40;;;2.23;;
20669;SDS011;10494;50.868;4.180;2023-02-28T12:40:06;3.57;;;2.63;;
20669;SDS011;10494;50.868;4.180;2023-02-28T12:42:41;5.83;;;2.07;;
20669;SDS011;10494;50.868;4.180;2023-02-28T12:45:34;6.20;;;2.20;;
20669;SDS011;10494;50.868;4.180;2023-02-28T12:48:25;4.03;;;2.23;;
20669;SDS011;10494;50.868;4.180;2023-02-28T12:50:56;4.17;;;2.30;;
20669;SDS011;10494;50.868;4.180;2023-02-28T12:53:43;5.00;;;2.80;;
20669;SDS011;10494;50.868;4.180;2023-02-28T12:59:26;4.60;;;2.23;;
20669;SDS011;10494;50.868;4.180;2023-02-28T13:05:04;7.27;;;3.23;;
20669;SDS011;10494;50.868;4.180;2023-02-28T13:10:53;4.53;;;2.43;;
20669;SDS011;10494;50.868;4.180;2023-02-28T13:13:22;5.40;;;2.70;;
20669;SDS011;10494;50.868;4.180;2023-02-28T13:16:07;5.80;;;2.40;;
20669;SDS011;10494;50.868;4.180;2023-02-28T13:18:36;3.97;;;2.87;;
20669;SDS011;10494;50.868;4.180;2023-02-28T13:21:05;7.40;;;2.97;;
20669;SDS011;10494;50.868;4.180;2023-02-28T13:23:37;7.67;;;2.50;;
20669;SDS011;10494;50.868;4.180;2023-02-28T13:26:06;4.63;;;2.43;;
20669;SDS011;10494;50.868;4.180;2023-02-28T13:31:18;5.60;;;2.37;;
20669;SDS011;10494;50.868;4.180;2023-02-28T13:38:45;5.40;;;2.40;;
20669;SDS011;10494;50.868;4.180;2023-02-28T13:44:03;4.87;;;2.17;;
20669;SDS011;10494;50.868;4.180;2023-02-28T13:54:22;6.13;;;2.50;;
20669;SDS011;10494;50.868;4.180;2023-02-28T14:00:31;6.53;;;2.50;;
20669;SDS011;10494;50.868;4.180;2023-02-28T14:05:47;2.83;;;2.30;;
20669;SDS011;10494;50.868;4.180;2023-02-28T14:09:03;6.23;;;2.47;;
20669;SDS011;10494;50.868;4.180;2023-02-28T14:11:42;4.57;;;2.40;;
20669;SDS011;10494;50.868;4.180;2023-02-28T14:14:09;3.87;;;2.40;;
20669;SDS011;10494;50.868;4.180;2023-02-28T14:19:35;6.87;;;2.60;;
20669;SDS011;10494;50.868;4.180;2023-02-28T14:25:14;6.20;;;3.87;;
20669;SDS011;10494;50.868;4.180;2023-02-28T14:27:48;6.53;;;2.33;;
20669;SDS011;10494;50.868;4.180;2023-02-28T14:30:49;14.67;;;3.23;;
20669;SDS011;10494;50.868;4.180;2023-02-28T14:36:13;6.43;;;2.63;;
20669;SDS011;10494;50.868;4.180;2023-02-28T14:38:57;4.07;;;2.80;;
20669;SDS011;10494;50.868;4.180;2023-02-28T14:41:31;4.03;;;2.47;;
20669;SDS011;10494;50.868;4.180;2023-02-28T14:44:02;10.43;;;3.07;;
20669;SDS011;10494;50.868;4.180;2023-02-28T14:46:38;3.53;;;2.30;;
20669;SDS011;10494;50.868;4.180;2023-02-28T14:49:05;3.53;;;2.40;;
20669;SDS011;10494;50.868;4.180;2023-02-28T14:51:37;3.33;;;2.30;;
20669;SDS011;10494;50.868;4.180;2023-02-28T14:54:02;7.00;;;2.83;;
20669;SDS011;10494;50.868;4.180;2023-02-28T14:56:34;8.23;;;2.80;;
20669;SDS011;10494;50.868;4.180;2023-02-28T14:59:01;9.40;;;2.60;;
20669;SDS011;10494;50.868;4.180;2023-02-28T15:01:28;4.83;;;2.70;;
20669;SDS011;10494;50.868;4.180;2023-02-28T15:04:04;9.93;;;2.30;;
20669;SDS011;10494;50.868;4.180;2023-02-28T15:06:31;6.70;;;2.87;;
20669;SDS011;10494;50.868;4.180;2023-02-28T15:11:55;3.37;;;2.50;;
20669;SDS011;10494;50.868;4.180;2023-02-28T15:14:21;4.60;;;3.07;;
20669;SDS011;10494;50.868;4.180;2023-02-28T15:16:52;5.23;;;2.60;;
20669;SDS011;10494;50.868;4.180;2023-02-28T15:19:23;11.63;;;3.17;;
20669;SDS011;10494;50.868;4.180;2023-02-28T15:21:59;7.10;;;2.60;;
20669;SDS011;10494;50.868;4.180;2023-02-28T15:24:35;5.00;;;2.73;;
20669;SDS011;10494;50.868;4.180;2023-02-28T15:27:09;3.63;;;2.60;;
20669;SDS011;10494;50.868;4.180;2023-02-28T15:29:43;3.83;;;2.90;;
20669;SDS011;10494;50.868;4.180;2023-02-28T15:32:46;7.53;;;3.10;;
20669;SDS011;10494;50.868;4.180;2023-02-28T15:40:52;8.63;;;3.37;;
20669;SDS011;10494;50.868;4.180;2023-02-28T15:43:23;3.87;;;2.60;;
20669;SDS011;10494;50.868;4.180;2023-02-28T15:46:01;4.13;;;3.10;;
20669;SDS011;10494;50.868;4.180;2023-02-28T15:48:36;5.90;;;3.10;;
20669;SDS011;10494;50.868;4.180;2023-02-28T15:53:43;3.93;;;2.97;;
20669;SDS011;10494;50.868;4.180;2023-02-28T15:56:22;3.87;;;2.60;;
20669;SDS011;10494;50.868;4.180;2023-02-28T15:58:50;15.07;;;3.23;;
20669;SDS011;10494;50.868;4.180;2023-02-28T16:01:29;7.70;;;3.07;;
20669;SDS011;10494;50.868;4.180;2023-02-28T16:03:59;8.57;;;2.60;;
20669;SDS011;10494;50.868;4.180;2023-02-28T16:06:38;3.80;;;2.83;;
20669;SDS011;10494;50.868;4.180;2023-02-28T16:09:11;3.60;;;2.53;;
20669;SDS011;10494;50.868;4.180;2023-02-28T16:11:42;10.33;;;3.40;;
20669;SDS011;10494;50.868;4.180;2023-02-28T16:14:22;4.50;;;2.90;;
20669;SDS011;10494;50.868;4.180;2023-02-28T16:16:50;5.70;;;2.60;;
20669;SDS011;10494;50.868;4.180;2023-02-28T16:19:18;4.10;;;2.80;;
20669;SDS011;10494;50.868;4.180;2023-02-28T16:21:44;8.97;;;3.03;;
20669;SDS011;10494;50.868;4.180;2023-02-28T16:24:11;5.63;;;2.80;;
20669;SDS011;10494;50.868;4.180;2023-02-28T16:26:36;3.90;;;2.50;;
20669;SDS011;10494;50.868;4.180;2023-02-28T16:29:04;9.10;;;2.93;;
20669;SDS011;10494;50.868;4.180;2023-02-28T16:31:32;7.90;;;3.30;;
20669;SDS011;10494;50.868;4.180;2023-02-28T16:34:01;7.23;;;2.73;;
20669;SDS011;10494;50.868;4.180;2023-02-28T16:36:27;8.17;;;3.37;;
20669;SDS011;10494;50.868;4.180;2023-02-28T16:38:54;6.27;;;3.10;;
20669;SDS011;10494;50.868;4.180;2023-02-28T16:41:24;3.70;;;2.43;;
20669;SDS011;10494;50.868;4.180;2023-02-28T16:43:53;6.13;;;2.80;;
20669;SDS011;10494;50.868;4.180;2023-02-28T16:46:23;9.53;;;2.90;;
20669;SDS011;10494;50.868;4.180;2023-02-28T16:48:52;4.97;;;3.03;;
20669;SDS011;10494;50.868;4.180;2023-02-28T16:51:17;4.27;;;2.57;;
20669;SDS011;10494;50.868;4.180;2023-02-28T16:53:44;7.07;;;3.10;;
20669;SDS011;10494;50.868;4.180;2023-02-28T16:56:13;5.43;;;2.90;;
20669;SDS011;10494;50.868;4.180;2023-02-28T16:58:41;9.77;;;3.13;;
20669;SDS011;10494;50.868;4.180;2023-02-28T17:01:07;7.93;;;3.00;;
20669;SDS011;10494;50.868;4.180;2023-02-28T17:03:32;6.10;;;3.03;;
20669;SDS011;10494;50.868;4.180;2023-02-28T17:05:58;5.33;;;2.97;;
20669;SDS011;10494;50.868;4.180;2023-02-28T17:08:24;4.50;;;3.37;;
20669;SDS011;10494;50.868;4.180;2023-02-28T17:10:49;5.70;;;3.27;;
20669;SDS011;10494;50.868;4.180;2023-02-28T17:13:15;4.63;;;2.87;;